createdAt,value
2023-04-18T00:01:39.262Z,8.23
2023-04-18T00:04:12.428Z,8.30
2023-04-18T00:06:47.423Z,8.73
2023-04-18T00:09:20.632Z,8.93
2023-04-18T00:11:54.306Z,8.73
2023-04-18T00:14:29.125Z,8.80
2023-04-18T00:17:03.316Z,8.17
2023-04-18T00:19:36.381Z,8.40
2023-04-18T00:22:09.650Z,8.57
2023-04-18T00:24:42.859Z,9.07
2023-04-18T00:27:15.846Z,8.93
2023-04-18T00:29:50.137Z,8.83
2023-04-18T00:32:23.284Z,9.10
2023-04-18T00:34:58.024Z,8.83
2023-04-18T00:37:32.339Z,8.97
2023-04-18T00:40:06.452Z,8.23
2023-04-18T00:42:40.922Z,8.30
2023-04-18T00:45:14.653Z,8.83
2023-04-18T00:47:48.819Z,8.87
2023-04-18T00:50:23.980Z,7.90
2023-04-18T00:52:58.007Z,9.20
2023-04-18T00:55:32.180Z,8.40
2023-04-18T00:58:06.412Z,8.80
2023-04-18T01:00:39.899Z,7.97
2023-04-18T01:03:14.557Z,8.67
2023-04-18T01:05:47.906Z,8.40
2023-04-18T01:08:22.865Z,8.27
2023-04-18T01:10:57.311Z,7.97
2023-04-18T01:13:30.712Z,8.23
2023-04-18T01:16:03.830Z,7.90
2023-04-18T01:18:40.368Z,7.73
2023-04-18T01:21:14.864Z,8.13
2023-04-18T01:23:49.397Z,8.50
2023-04-18T01:26:23.111Z,7.80
2023-04-18T01:28:56.410Z,7.87
2023-04-18T01:31:29.554Z,7.87
2023-04-18T01:34:08.655Z,8.60
2023-04-18T01:36:42.398Z,7.70
2023-04-18T01:39:18.460Z,7.63
2023-04-18T01:41:52.360Z,7.63
2023-04-18T01:44:26.294Z,7.37
2023-04-18T01:46:59.432Z,7.70
2023-04-18T01:49:33.296Z,7.73
2023-04-18T01:52:06.599Z,8.20
2023-04-18T01:54:39.857Z,8.03
2023-04-18T01:57:14.514Z,7.77
2023-04-18T01:59:47.663Z,8.43
2023-04-18T02:02:21.103Z,7.60
2023-04-18T02:04:54.104Z,7.30
2023-04-18T02:07:27.114Z,8.60
2023-04-18T02:10:01.192Z,8.53
2023-04-18T02:12:37.880Z,7.70
2023-04-18T02:15:12.529Z,7.33
2023-04-18T02:17:45.958Z,7.67
2023-04-18T02:20:19.164Z,8.13
2023-04-18T02:22:52.057Z,7.87
2023-04-18T02:25:27.767Z,8.10
2023-04-18T02:28:01.210Z,7.73
2023-04-18T02:30:38.512Z,8.27
2023-04-18T02:33:12.345Z,8.17
2023-04-18T02:35:47.948Z,8.07
2023-04-18T02:38:26.010Z,7.97
2023-04-18T02:40:59.220Z,8.60
2023-04-18T02:43:33.231Z,8.00
2023-04-18T02:46:08.394Z,8.03
2023-04-18T02:48:42.224Z,8.33
2023-04-18T02:51:15.893Z,7.60
2023-04-18T02:53:55.003Z,7.73
2023-04-18T02:56:29.771Z,7.40
2023-04-18T02:59:26.729Z,7.93
2023-04-18T03:02:32.158Z,7.83
2023-04-18T03:05:10.849Z,8.23
2023-04-18T03:07:45.646Z,7.40
2023-04-18T03:10:18.898Z,7.60
2023-04-18T03:12:52.811Z,7.73
2023-04-18T03:15:26.968Z,8.20
2023-04-18T03:18:01.246Z,8.20
2023-04-18T03:20:39.276Z,8.13
2023-04-18T03:23:13.747Z,7.63
2023-04-18T03:25:47.012Z,7.80
2023-04-18T03:28:20.236Z,7.60
2023-04-18T03:30:53.927Z,8.83
2023-04-18T03:33:28.940Z,8.27
2023-04-18T03:36:11.787Z,7.75
2023-04-18T03:38:46.068Z,8.20
2023-04-18T03:41:22.582Z,8.27
2023-04-18T03:43:55.717Z,8.10
2023-04-18T03:46:28.969Z,7.67
2023-04-18T03:49:02.861Z,8.03
2023-04-18T03:51:43.381Z,8.57
2023-04-18T03:54:17.560Z,8.13
2023-04-18T03:56:50.626Z,7.40
2023-04-18T03:59:25.480Z,9.03
2023-04-18T04:01:58.778Z,7.87
2023-04-18T04:04:31.947Z,8.10
2023-04-18T04:07:05.230Z,7.43
2023-04-18T04:09:38.322Z,7.97
2023-04-18T04:12:12.370Z,8.13
2023-04-18T04:14:45.463Z,8.00
2023-04-18T04:17:19.695Z,8.30
2023-04-18T04:19:53.824Z,8.37
2023-04-18T04:22:27.516Z,8.30
2023-04-18T04:25:02.921Z,8.17
2023-04-18T04:27:42.911Z,8.00
2023-04-18T04:30:17.997Z,8.10
2023-04-18T04:32:52.164Z,7.80
2023-04-18T04:35:26.742Z,8.10
2023-04-18T04:38:01.793Z,8.17
2023-04-18T04:40:47.609Z,7.50
2023-04-18T04:43:21.756Z,6.83
2023-04-18T04:45:57.809Z,7.40
2023-04-18T04:48:32.402Z,6.80
2023-04-18T04:51:07.976Z,7.27
2023-04-18T04:53:41.812Z,6.73
2023-04-18T04:56:14.988Z,6.97
2023-04-18T04:58:49.908Z,7.43
2023-04-18T05:01:49.690Z,6.33
2023-04-18T05:04:26.073Z,5.87
2023-04-18T05:06:59.890Z,5.60
2023-04-18T05:09:34.667Z,5.40
2023-04-18T05:12:08.562Z,5.70
2023-04-18T05:14:41.617Z,5.23
2023-04-18T05:17:18.970Z,5.03
2023-04-18T05:19:53.361Z,5.17
2023-04-18T05:22:27.975Z,4.87
2023-04-18T05:27:40.061Z,5.30
2023-04-18T05:30:14.043Z,5.07
2023-04-18T05:32:51.395Z,4.87
2023-04-18T05:35:26.390Z,5.63
2023-04-18T05:38:00.580Z,4.73
2023-04-18T05:40:35.163Z,4.73
2023-04-18T05:43:08.384Z,3.97
2023-04-18T05:45:42.330Z,4.30
2023-04-18T05:48:16.217Z,4.93
2023-04-18T05:50:49.340Z,4.20
2023-04-18T05:53:23.425Z,4.20
2023-04-18T05:55:57.778Z,4.07
2023-04-18T05:58:33.540Z,3.80
2023-04-18T06:01:07.053Z,4.37
2023-04-18T06:03:40.880Z,4.53
2023-04-18T06:06:15.675Z,4.50
2023-04-18T06:08:49.228Z,4.57
2023-04-18T06:11:23.311Z,4.07
2023-04-18T06:13:56.946Z,3.97
2023-04-18T06:16:29.937Z,4.97
2023-04-18T06:19:05.367Z,4.20
2023-04-18T06:21:42.189Z,3.93
2023-04-18T06:24:16.045Z,3.80
2023-04-18T06:26:49.846Z,4.53
2023-04-18T06:29:23.404Z,4.57
2023-04-18T06:31:57.610Z,4.70
2023-04-18T06:34:33.338Z,4.43
2023-04-18T06:37:07.253Z,4.93
2023-04-18T06:39:41.358Z,4.83
2023-04-18T06:42:14.761Z,4.43
2023-04-18T06:44:51.302Z,5.10
2023-04-18T06:47:24.418Z,5.00
2023-04-18T06:49:57.869Z,4.67
2023-04-18T06:52:31.441Z,5.00
2023-04-18T06:55:05.120Z,4.33
2023-04-18T06:57:41.233Z,4.87
2023-04-18T07:00:16.757Z,4.77
2023-04-18T07:02:52.051Z,5.90
2023-04-18T07:05:26.071Z,5.80
2023-04-18T07:08:00.615Z,4.97
2023-04-18T07:10:35.445Z,4.97
2023-04-18T07:13:08.627Z,4.30
2023-04-18T07:15:44.195Z,4.87
2023-04-18T07:18:30.141Z,5.40
2023-04-18T07:21:10.271Z,4.83
2023-04-18T07:23:45.860Z,5.93
2023-04-18T07:26:19.196Z,4.70
2023-04-18T07:28:52.406Z,4.30
2023-04-18T07:31:25.986Z,4.70
2023-04-18T07:33:59.576Z,4.70
2023-04-18T07:36:34.385Z,4.57
2023-04-18T07:39:07.331Z,4.50
2023-04-18T07:41:40.578Z,4.70
2023-04-18T07:44:13.969Z,4.43
2023-04-18T07:46:47.418Z,4.30
2023-04-18T07:49:21.051Z,4.13
2023-04-18T07:51:54.900Z,4.37
2023-04-18T07:54:28.201Z,4.03
2023-04-18T07:57:03.395Z,3.73
2023-04-18T07:59:36.981Z,4.63
2023-04-18T08:02:10.500Z,3.63
2023-04-18T08:04:43.827Z,3.90
2023-04-18T08:07:19.178Z,3.60
2023-04-18T08:09:53.879Z,3.77
2023-04-18T08:12:27.110Z,3.43
2023-04-18T08:15:00.154Z,4.67
2023-04-18T08:17:33.579Z,3.30
2023-04-18T08:20:07.778Z,3.40
2023-04-18T08:22:53.659Z,3.60
2023-04-18T08:25:36.837Z,3.60
2023-04-18T08:28:10.092Z,3.30
2023-04-18T08:30:48.906Z,3.07
2023-04-18T08:33:23.182Z,3.53
2023-04-18T08:35:56.049Z,3.43
2023-04-18T08:38:30.125Z,2.93
2023-04-18T08:41:08.121Z,3.37
2023-04-18T08:44:01.970Z,3.67
2023-04-18T08:46:37.881Z,3.10
2023-04-18T08:49:12.868Z,4.47
2023-04-18T08:51:48.741Z,3.47
2023-04-18T08:54:25.022Z,3.20
2023-04-18T08:57:10.531Z,3.30
2023-04-18T08:59:46.360Z,3.27
2023-04-18T09:02:22.197Z,3.35
2023-04-18T09:04:56.052Z,3.00
2023-04-18T09:07:46.768Z,3.40
2023-04-18T09:10:29.072Z,3.07
2023-04-18T09:15:39.419Z,3.10
2023-04-18T09:18:13.227Z,3.13
2023-04-18T09:20:47.742Z,3.20
2023-04-18T09:23:27.004Z,3.70
2023-04-18T09:26:34.077Z,3.60
2023-04-18T09:29:17.611Z,3.30
2023-04-18T09:32:03.136Z,2.90
2023-04-18T09:34:38.467Z,3.07
2023-04-18T09:37:14.042Z,3.00
2023-04-18T09:39:48.398Z,3.70
2023-04-18T09:42:22.306Z,2.83
2023-04-18T09:45:09.518Z,3.20
2023-04-18T09:47:44.315Z,3.57
2023-04-18T09:50:18.494Z,2.87
2023-04-18T09:52:51.601Z,3.03
2023-04-18T09:55:25.121Z,3.47
2023-04-18T09:58:00.950Z,3.17
2023-04-18T10:00:35.379Z,3.90
2023-04-18T10:03:10.037Z,3.43
2023-04-18T10:05:43.822Z,2.90
2023-04-18T10:08:17.502Z,3.33
2023-04-18T10:10:53.778Z,3.30
2023-04-18T10:13:27.768Z,3.60
2023-04-18T10:16:01.439Z,4.00
2023-04-18T10:18:34.877Z,3.87
2023-04-18T10:21:10.258Z,3.53
2023-04-18T10:23:46.068Z,3.10
2023-04-18T10:26:19.565Z,3.17
2023-04-18T10:29:01.027Z,3.53
2023-04-18T10:31:41.667Z,3.50
2023-04-18T10:34:18.352Z,3.00
2023-04-18T10:37:08.324Z,2.90
2023-04-18T10:40:00.489Z,3.57
2023-04-18T10:45:36.595Z,2.90
2023-04-18T10:48:30.313Z,3.10
2023-04-18T10:51:18.331Z,3.17
2023-04-18T10:53:58.324Z,3.93
2023-04-18T10:56:33.034Z,2.50
2023-04-18T10:59:07.294Z,3.87
2023-04-18T11:01:45.904Z,3.33
2023-04-18T11:04:19.707Z,4.03
2023-04-18T11:06:57.797Z,3.37
2023-04-18T11:09:31.388Z,3.00
2023-04-18T11:12:09.607Z,3.07
2023-04-18T11:14:47.317Z,2.80
2023-04-18T11:17:22.335Z,2.87
2023-04-18T11:20:04.724Z,3.10
2023-04-18T11:22:46.723Z,2.63
2023-04-18T11:27:56.358Z,2.47
2023-04-18T11:30:31.544Z,2.47
2023-04-18T11:33:11.432Z,2.83
2023-04-18T11:35:46.697Z,3.10
2023-04-18T11:38:19.817Z,3.33
2023-04-18T11:40:54.749Z,2.73
2023-04-18T11:43:29.465Z,3.10
2023-04-18T11:46:02.821Z,3.03
2023-04-18T11:48:41.281Z,2.90
2023-04-18T11:51:35.883Z,4.23
2023-04-18T11:54:43.753Z,2.90
2023-04-18T11:57:27.430Z,3.17
2023-04-18T12:00:02.169Z,2.70
2023-04-18T12:02:47.387Z,3.08
2023-04-18T12:05:30.938Z,3.10
2023-04-18T12:08:11.585Z,3.33
2023-04-18T12:10:51.622Z,3.10
2023-04-18T12:13:33.726Z,3.30
2023-04-18T12:16:08.006Z,3.63
2023-04-18T12:18:42.013Z,3.77
2023-04-18T12:21:17.222Z,3.50
2023-04-18T12:23:50.578Z,3.83
2023-04-18T12:26:27.554Z,3.55
2023-04-18T12:29:16.471Z,3.00
2023-04-18T12:31:50.492Z,3.60
2023-04-18T12:34:24.491Z,3.57
2023-04-18T12:36:57.512Z,3.67
2023-04-18T12:39:31.739Z,3.43
2023-04-18T12:42:05.740Z,3.43
2023-04-18T12:44:38.850Z,3.40
2023-04-18T12:47:12.005Z,3.73
2023-04-18T12:49:45.210Z,4.10
2023-04-18T12:52:18.300Z,3.70
2023-04-18T12:54:51.511Z,3.57
2023-04-18T12:57:24.815Z,3.63
2023-04-18T12:59:57.994Z,3.47
2023-04-18T13:02:32.279Z,4.20
2023-04-18T13:05:05.319Z,3.57
2023-04-18T13:07:40.630Z,4.00
2023-04-18T13:10:16.314Z,3.50
2023-04-18T13:12:50.830Z,4.33
2023-04-18T13:15:24.627Z,3.77
2023-04-18T13:18:04.667Z,4.20
2023-04-18T13:20:39.102Z,3.90
2023-04-18T13:23:12.339Z,3.33
2023-04-18T13:25:45.415Z,3.30
2023-04-18T13:28:18.550Z,4.13
2023-04-18T13:30:51.964Z,3.93
2023-04-18T13:33:26.582Z,4.17
2023-04-18T13:35:59.849Z,4.07
2023-04-18T13:38:32.904Z,4.03
2023-04-18T13:41:21.450Z,3.53
2023-04-18T13:43:55.049Z,3.80
2023-04-18T13:46:28.713Z,3.97
2023-04-18T13:49:02.147Z,4.13
2023-04-18T13:51:36.564Z,4.00
2023-04-18T13:54:10.350Z,4.40
2023-04-18T13:56:45.116Z,4.40
2023-04-18T13:59:18.242Z,4.60
2023-04-18T14:01:51.964Z,4.37
2023-04-18T14:04:25.525Z,4.40
2023-04-18T14:07:00.514Z,4.00
2023-04-18T14:09:33.452Z,4.30
2023-04-18T14:12:08.927Z,4.23
2023-04-18T14:14:42.164Z,4.17
2023-04-18T14:17:15.326Z,4.60
2023-04-18T14:19:49.522Z,4.50
2023-04-18T14:22:22.587Z,4.80
2023-04-18T14:24:56.322Z,4.37
2023-04-18T14:27:29.843Z,4.97
2023-04-18T14:30:02.925Z,4.60
2023-04-18T14:32:36.316Z,4.40
2023-04-18T14:35:11.406Z,4.80
2023-04-18T14:37:45.912Z,5.10
2023-04-18T14:40:20.674Z,5.00
2023-04-18T14:42:53.986Z,4.30
2023-04-18T14:45:27.223Z,4.80
2023-04-18T14:48:01.231Z,4.47
2023-04-18T14:50:36.095Z,4.50
2023-04-18T14:53:11.661Z,4.80
2023-04-18T14:55:46.134Z,5.30
2023-04-18T14:58:19.568Z,4.50
2023-04-18T15:00:57.708Z,5.27
2023-04-18T15:03:31.006Z,4.90
2023-04-18T15:06:05.070Z,4.40
2023-04-18T15:08:38.071Z,5.13
2023-04-18T15:11:12.414Z,4.20
2023-04-18T15:13:47.732Z,4.83
2023-04-18T15:16:21.802Z,4.10
2023-04-18T15:18:54.863Z,5.33
2023-04-18T15:21:28.159Z,4.20
2023-04-18T15:24:01.135Z,4.00
2023-04-18T15:26:34.517Z,4.40
2023-04-18T15:29:18.225Z,4.07
2023-04-18T15:31:51.536Z,5.03
2023-04-18T15:34:24.458Z,4.40
2023-04-18T15:36:58.013Z,4.50
2023-04-18T15:39:31.221Z,4.20
2023-04-18T15:42:07.172Z,4.63
2023-04-18T15:44:41.582Z,4.57
2023-04-18T15:47:14.836Z,4.63
2023-04-18T15:49:48.034Z,5.43
2023-04-18T15:52:20.887Z,5.20
2023-04-18T15:54:55.348Z,4.50
2023-04-18T15:57:29.766Z,4.90
2023-04-18T16:00:05.666Z,4.40
2023-04-18T16:02:38.667Z,4.55
2023-04-18T16:05:13.093Z,4.83
2023-04-18T16:07:46.818Z,4.33
2023-04-18T16:10:19.856Z,4.93
2023-04-18T16:12:53.776Z,5.90
2023-04-18T16:15:27.112Z,4.87
2023-04-18T16:18:00.316Z,4.77
2023-04-18T16:20:33.701Z,4.80
2023-04-18T16:23:07.286Z,4.37
2023-04-18T16:25:41.669Z,5.10
2023-04-18T16:28:14.855Z,4.40
2023-04-18T16:30:48.322Z,4.73
2023-04-18T16:33:25.847Z,4.40
2023-04-18T16:36:03.273Z,4.73
2023-04-18T16:38:36.516Z,5.13
2023-04-18T16:41:09.932Z,4.83
2023-04-18T16:43:42.965Z,4.33
2023-04-18T16:46:16.184Z,4.67
2023-04-18T16:48:52.572Z,4.23
2023-04-18T16:51:26.311Z,4.93
2023-04-18T16:54:00.660Z,4.47
2023-04-18T16:56:35.657Z,4.77
2023-04-18T16:59:09.466Z,5.63
2023-04-18T17:01:43.497Z,5.17
2023-04-18T17:04:17.145Z,5.90
2023-04-18T17:06:52.107Z,6.03
2023-04-18T17:09:25.766Z,5.60
2023-04-18T17:11:59.164Z,6.57
2023-04-18T17:30:51.655Z,6.30
2023-04-18T17:33:21.970Z,6.93
2023-04-18T17:35:55.983Z,6.47
2023-04-18T17:38:26.308Z,7.07
2023-04-18T17:41:02.039Z,6.40
2023-04-18T17:43:32.068Z,6.43
2023-04-18T17:46:03.284Z,7.07
2023-04-18T17:48:33.738Z,6.22
2023-04-18T17:51:04.073Z,6.83
2023-04-18T17:53:34.382Z,6.07
2023-04-18T17:56:05.891Z,6.80
2023-04-18T17:58:36.449Z,6.62
2023-04-18T18:01:16.667Z,6.40
2023-04-18T18:03:47.794Z,6.50
2023-04-18T18:06:18.708Z,6.17
2023-04-18T18:08:48.613Z,6.23
2023-04-18T18:11:18.932Z,6.43
2023-04-18T18:13:51.290Z,7.10
2023-04-18T18:16:21.261Z,7.03
2023-04-18T18:18:52.159Z,7.57
2023-04-18T18:21:22.680Z,7.80
2023-04-18T18:23:53.213Z,8.63
2023-04-18T18:26:26.078Z,7.37
2023-04-18T18:28:56.524Z,8.53
2023-04-18T18:31:27.059Z,8.67
2023-04-18T18:33:57.378Z,7.30
2023-04-18T18:36:28.041Z,8.27
2023-04-18T18:39:00.903Z,8.40
2023-04-18T18:41:32.633Z,8.07
2023-04-18T18:46:31.694Z,7.03
2023-04-18T18:49:02.169Z,6.23
2023-04-18T18:51:32.504Z,7.03
2023-04-18T18:54:02.812Z,6.83
2023-04-18T18:56:33.140Z,6.80
2023-04-18T18:59:03.870Z,7.07
2023-04-18T19:01:34.043Z,6.83
2023-04-18T19:04:05.077Z,6.93
2023-04-18T19:06:35.866Z,6.73
2023-04-18T19:09:06.774Z,8.13
2023-04-18T19:11:37.332Z,7.03
2023-04-18T19:14:07.650Z,6.53
2023-04-18T19:16:37.937Z,7.50
2023-04-18T19:19:08.719Z,6.83
2023-04-18T19:21:39.442Z,6.33
2023-04-18T19:24:11.297Z,7.00
2023-04-18T19:26:42.140Z,7.95
2023-04-18T19:29:13.908Z,7.07
2023-04-18T19:31:44.671Z,6.73
2023-04-18T19:34:14.952Z,6.37
2023-04-18T19:36:46.119Z,6.73
2023-04-18T19:39:17.846Z,6.67
2023-04-18T19:41:48.584Z,6.90
2023-04-18T19:44:18.497Z,6.50
2023-04-18T19:46:49.835Z,6.67
2023-04-18T19:49:22.209Z,5.83
2023-04-18T19:54:22.651Z,7.13
2023-04-18T19:56:52.970Z,6.47
2023-04-18T19:59:23.705Z,6.90
2023-04-18T20:01:54.039Z,6.70
2023-04-18T20:04:25.288Z,6.30
2023-04-18T20:06:56.925Z,6.80
2023-04-18T20:09:27.048Z,7.27
2023-04-18T20:12:00.037Z,6.73
2023-04-18T20:14:30.760Z,7.47
2023-04-18T20:17:01.616Z,6.87
2023-04-18T20:19:32.020Z,7.77
2023-04-18T20:22:05.551Z,7.47
2023-04-18T20:24:35.742Z,7.20
2023-04-18T20:27:06.675Z,7.53
2023-04-18T20:29:36.810Z,7.87
2023-04-18T20:32:08.213Z,6.53
2023-04-18T20:34:38.472Z,7.57
2023-04-18T20:37:09.807Z,7.77
2023-04-18T20:39:41.694Z,6.97
2023-04-18T20:42:14.163Z,7.42
2023-04-18T20:44:46.312Z,6.57
2023-04-18T20:47:17.260Z,7.60
2023-04-18T20:49:48.391Z,8.37
2023-04-18T20:52:19.624Z,6.53
2023-04-18T20:54:49.857Z,7.00
2023-04-18T20:57:20.996Z,7.77
2023-04-18T20:59:51.144Z,7.53
2023-04-18T21:02:21.294Z,7.33
2023-04-18T21:04:53.042Z,7.70
2023-04-18T21:07:23.309Z,7.53
2023-04-18T21:09:53.234Z,8.07
2023-04-18T21:12:23.768Z,7.03
2023-04-18T21:14:54.089Z,7.80
2023-04-18T21:17:25.549Z,8.33
2023-04-18T21:19:56.711Z,7.67
2023-04-18T21:22:26.886Z,7.03
2023-04-18T21:24:57.419Z,7.87
2023-04-18T21:27:28.150Z,8.17
2023-04-18T21:29:58.877Z,8.73
2023-04-18T21:32:29.024Z,7.83
2023-04-18T21:35:00.351Z,8.10
2023-04-18T21:37:32.305Z,7.10
2023-04-18T21:40:03.658Z,7.92
2023-04-18T21:42:35.205Z,7.60
2023-04-18T21:45:07.367Z,8.28
2023-04-18T21:47:37.957Z,8.07
2023-04-18T21:50:11.794Z,8.60
2023-04-18T21:52:42.027Z,8.13
2023-04-18T21:55:12.764Z,8.47
2023-04-18T21:57:43.296Z,8.37
2023-04-18T22:00:16.580Z,8.63
2023-04-18T22:02:47.370Z,8.77
2023-04-18T22:05:18.144Z,8.23
2023-04-18T22:07:57.599Z,7.73
2023-04-18T22:10:29.025Z,7.30
2023-04-18T22:13:00.786Z,8.03
2023-04-18T22:15:31.128Z,8.83
2023-04-18T22:18:01.509Z,8.17
2023-04-18T22:20:33.120Z,7.80
2023-04-18T22:23:13.000Z,8.43
2023-04-18T22:25:43.269Z,8.23
2023-04-18T22:28:13.790Z,7.33
2023-04-18T22:30:44.125Z,7.93
2023-04-18T22:33:14.231Z,7.97
2023-04-18T22:35:44.556Z,8.10
2023-04-18T22:38:14.871Z,8.33
2023-04-18T22:40:44.784Z,8.77
2023-04-18T22:43:14.674Z,8.53
2023-04-18T22:45:45.468Z,8.23
2023-04-18T22:48:16.695Z,8.10
2023-04-18T22:50:47.309Z,8.27
2023-04-18T22:53:17.495Z,7.37
2023-04-18T22:55:47.712Z,8.47
2023-04-18T22:58:17.859Z,8.07
2023-04-18T23:00:48.184Z,8.03
2023-04-18T23:03:18.701Z,8.27
2023-04-18T23:05:49.060Z,7.23
2023-04-18T23:08:20.386Z,8.53
2023-04-18T23:10:50.909Z,8.73
2023-04-18T23:13:21.015Z,8.43
2023-04-18T23:15:51.182Z,8.17
2023-04-18T23:18:21.268Z,7.93
2023-04-18T23:20:51.589Z,8.40
2023-04-18T23:23:21.414Z,8.73
2023-04-18T23:25:52.450Z,7.93
2023-04-18T23:28:22.853Z,8.10
2023-04-18T23:30:54.109Z,8.23
2023-04-18T23:33:24.275Z,7.40
2023-04-18T23:35:54.347Z,8.97
2023-04-18T23:38:24.666Z,8.47
2023-04-18T23:40:54.988Z,8.27
2023-04-18T23:43:25.153Z,8.13
2023-04-18T23:45:55.430Z,7.70
2023-04-18T23:48:25.548Z,9.20
2023-04-18T23:50:55.868Z,7.53
2023-04-18T23:53:25.848Z,8.23
2023-04-18T23:55:56.520Z,8.50
2023-04-18T23:58:27.042Z,8.27
